CheckWX is a tool to help pilots better visualize weather data.  It is not intended as a substitute for an official pre-flight weather briefing.

17:54:46 UTC

EGQL TAF
RAF Leuchars Airport
St. Andrews, United Kingdom
TAF EGQL 171642Z 1718/1803 14010KT 9999 SCT045 TEMPO 1721/1803 -SHRA SCT018 PROB30 TEMPO 1722/1802 5000 SHRA SCT007 BKN014CB

Oct-17@
18:00 UTC

Oct-17 @ 18:00 UTC

Oct-18@
03:00 UTC

Oct-18 @ 03:00 UTC

TAF EGQL 171642Z 1718/1803 14010KT 9999 SCT045
Wind
  • 140° at 10 KTS
Cloud Levels
  • Scattered at 4,500' AGL

Oct-17@
21:00 UTC

Oct-17 @ 21:00 UTC

Oct-18@
03:00 UTC

Oct-18 @ 03:00 UTC

TEMPO 1721/1803 -SHRA SCT018

Temporary

Temporary Changes expected for less than half the time period

Conditions
Light Rain
Cloud Levels
  • Scattered at 1,800' AGL

Oct-17@
22:00 UTC

Oct-17 @ 22:00 UTC

Oct-18@
02:00 UTC

Oct-18 @ 02:00 UTC

PROB30 TEMPO 1722/1802 5000 SHRA SCT007 BKN014CB

Temporary - 30% Likelihood

Temporary - 30% Likelihood during this time.

Conditions
Rain
Cloud Levels
  • Scattered at 700' AGL
  • Broken at 1,400' AGL